Time;durP1;ratioP1;P1;durP2;ratioP2;P2;SDS_P1;SDS_P2;PMS_P1;PMS_P2;Temp;Humidity;BMP_temperature;BMP_pressure;BME280_temperature;BME280_humidity;BME280_pressure;Samples;Min_cycle;Max_cycle;Signal;HPM_P1;HPM_P2
2022/12/10 11:07:43;;;;;;;32.53;23.92;;;;;;;20.39;32.38;101011.94;5017636;27;3083664;-43
2022/12/10 11:10:22;;;;;;;27.02;18.88;;;;;;;21.50;30.67;100998.38;5088907;28;20024;-43
2022/12/10 11:13:00;;;;;;;24.30;16.77;;;;;;;22.29;29.14;100998.41;5109641;28;20032;-45
2022/12/10 11:15:34;;;;;;;23.67;15.88;;;;;;;22.77;28.66;101001.09;5088192;28;20110;-44
2022/12/10 11:18:04;;;;;;;20.48;14.35;;;;;;;23.15;27.73;100989.53;5110019;28;20028;-45
2022/12/10 11:20:36;;;;;;;19.92;13.63;;;;;;;23.35;27.42;100990.78;5105971;28;20032;-44
2022/12/10 11:23:11;;;;;;;19.35;12.80;;;;;;;23.46;26.95;100982.22;5105892;28;20465;-43
2022/12/10 11:25:45;;;;;;;18.42;12.13;;;;;;;23.61;27.24;100987.69;5091179;28;20032;-44
2022/12/10 11:28:32;;;;;;;17.50;11.55;;;;;;;23.73;27.04;100981.75;5091173;28;20644;-46
2022/12/10 11:31:15;;;;;;;19.85;11.23;;;;;;;23.80;26.99;100977.47;5109113;28;20042;-44
2022/12/10 11:34:07;;;;;;;15.13;10.00;;;;;;;23.89;26.85;100975.00;5106517;28;20057;-49
2022/12/10 11:36:59;;;;;;;15.38;10.00;;;;;;;23.93;26.80;100968.06;5098383;28;20101;-43
2022/12/10 11:39:34;;;;;;;16.20;9.20;;;;;;;23.98;26.72;100969.03;5084252;28;20454;-46
2022/12/10 11:42:25;;;;;;;14.15;10.02;;;;;;;23.98;26.72;100969.03;5091533;28;20417;-44
2022/12/10 11:45:31;;;;;;;13.68;9.50;;;;;;;23.99;26.50;100959.41;5098157;28;20032;-44
2022/12/10 11:48:25;;;;;;;13.75;8.75;;;;;;;24.04;26.55;100960.38;5101764;28;20036;-43
2022/12/10 11:51:10;;;;;;;13.38;8.60;;;;;;;24.09;26.17;100959.56;5098322;28;20093;-43
2022/12/10 11:53:42;;;;;;;14.98;6.80;;;;;;;24.15;26.38;100964.00;5087312;28;20028;-44
2022/12/10 11:56:38;;;;;;;12.32;6.65;;;;;;;24.13;26.68;100952.59;5109145;28;20492;-45
2022/12/10 11:59:32;;;;;;;11.13;7.35;;;;;;;24.20;26.22;100953.56;5105072;28;20056;-43
2022/12/10 12:02:38;;;;;;;10.15;6.70;;;;;;;24.21;26.53;100950.97;5108980;28;20024;-43
2022/12/10 12:05:20;;;;;;;10.13;7.32;;;;;;;24.21;26.16;100944.84;5101288;28;20043;-43
2022/12/10 12:07:54;;;;;;;10.20;6.75;;;;;;;24.27;26.12;100942.28;5066911;28;20048;-46
2022/12/10 12:10:41;;;;;;;9.63;5.97;;;;;;;24.26;26.54;100938.78;5068231;28;20112;-43
2022/12/10 12:13:15;;;;;;;8.68;6.00;;;;;;;24.29;26.39;100948.44;5056151;28;20041;-43
2022/12/10 12:16:06;;;;;;;8.30;6.07;;;;;;;24.31;26.29;100944.09;5066195;28;20027;-44
2022/12/10 12:18:42;;;;;;;9.95;6.00;;;;;;;24.31;26.19;100941.47;5052491;28;20037;-44
2022/12/10 12:21:12;;;;;;;11.50;5.90;;;;;;;24.28;26.24;100950.16;5052008;28;20037;-43
2022/12/10 12:24:11;;;;;;;9.50;5.20;;;;;;;24.25;26.49;100944.88;5053527;28;20437;-44
2022/12/10 12:26:44;;;;;;;8.75;5.55;;;;;;;24.31;26.34;100937.97;5054202;28;20093;-46
2022/12/10 12:29:15;;;;;;;10.90;6.20;;;;;;;24.33;26.36;100951.97;5037714;28;20096;-46
2022/12/10 12:32:05;;;;;;;7.60;5.45;;;;;;;24.32;26.54;100947.59;5053685;28;20048;-43
2022/12/10 12:34:38;;;;;;;9.05;5.30;;;;;;;24.34;26.20;100957.22;5054460;28;20025;-47
2022/12/10 12:37:11;;;;;;;11.68;6.03;;;;;;;24.31;26.16;100954.59;5054593;28;20541;-43
2022/12/10 12:39:56;;;;;;;9.48;5.70;;;;;;;24.32;26.40;100952.81;5051385;28;20108;-47
2022/12/10 12:42:43;;;;;;;9.38;5.65;;;;;;;24.38;26.15;100951.16;5053129;28;20056;-46
2022/12/10 12:45:31;;;;;;;11.40;5.88;;;;;;;24.33;26.41;100952.81;5047452;28;20490;-44
2022/12/10 12:47:59;;;;;;;9.40;5.40;;;;;;;24.37;26.26;100949.38;5054258;28;20083;-46
2022/12/10 12:50:35;;;;;;;8.10;4.88;;;;;;;24.36;26.51;100936.28;5051949;28;20024;-43
2022/12/10 12:53:04;;;;;;;9.80;6.10;;;;;;;24.36;26.53;100934.53;5053896;28;20021;-46
2022/12/10 12:55:44;;;;;;;8.70;5.68;;;;;;;24.37;26.59;100933.66;5053777;28;20048;-46
2022/12/10 12:58:11;;;;;;;9.05;5.38;;;;;;;24.43;26.08;100936.34;5052175;28;20025;-45
2022/12/10 13:00:41;;;;;;;14.65;5.47;;;;;;;24.43;26.45;100941.59;5052778;28;20401;-44
2022/12/10 13:03:31;;;;;;;11.40;5.60;;;;;;;24.40;26.29;100931.06;5051977;28;20036;-45
2022/12/10 13:06:13;;;;;;;7.72;4.90;;;;;;;24.43;26.62;100928.50;5057130;28;20421;-43
2022/12/10 13:09:19;;;;;;;7.90;5.05;;;;;;;24.45;26.24;100925.00;5073254;28;20067;-43
2022/12/10 13:12:16;;;;;;;8.10;4.35;;;;;;;24.50;26.34;100929.44;5065586;28;20056;-43
2022/12/10 13:14:46;;;;;;;7.57;4.00;;;;;;;24.52;26.37;100942.53;5073105;28;20039;-45
2022/12/10 16:56:22;;;;;;;8.65;5.60;;;;;;;20.41;33.51;100908.66;5131134;27;20447;-42
2022/12/10 16:58:50;;;;;;;7.22;5.00;;;;;;;21.50;31.36;100913.09;5110700;28;20050;-42
2022/12/10 17:01:22;;;;;;;8.95;5.30;;;;;;;22.28;30.19;100902.56;5110672;28;20032;-44
2022/12/10 17:03:50;;;;;;;7.22;4.55;;;;;;;22.85;29.38;100907.94;5110456;28;20107;-44
2022/12/10 17:06:19;;;;;;;8.43;5.53;;;;;;;23.21;28.14;100904.19;5110383;28;20020;-43
2022/12/10 17:08:48;;;;;;;9.10;5.05;;;;;;;23.52;27.75;100907.25;5108964;28;20065;-44
2022/12/10 17:11:47;;;;;;;7.72;4.70;;;;;;;23.80;27.60;100905.03;5110140;28;20054;-43
2022/12/10 17:14:22;;;;;;;6.45;4.13;;;;;;;23.86;27.37;100888.50;5109991;28;20111;-46
2022/12/10 17:16:52;;;;;;;9.65;4.72;;;;;;;24.00;27.14;100887.81;5110116;28;20039;-43
2022/12/10 17:19:20;;;;;;;11.98;4.68;;;;;;;24.05;27.03;100883.50;5110453;28;20058;-44
2022/12/10 17:21:48;;;;;;;6.30;4.32;;;;;;;24.09;26.87;100877.41;5109994;28;20051;-43
2022/12/10 17:24:15;;;;;;;11.23;4.80;;;;;;;24.11;27.01;100886.19;5109918;28;20373;-46
2022/12/10 17:26:46;;;;;;;11.77;4.70;;;;;;;24.15;26.70;100881.88;5110173;28;20024;-45
2022/12/10 17:29:17;;;;;;;6.82;4.35;;;;;;;24.17;26.69;100880.13;5110109;28;20103;-45
2022/12/10 17:31:46;;;;;;;12.77;3.80;;;;;;;24.18;26.62;100884.50;5108544;28;20024;-43
2022/12/10 17:34:15;;;;;;;11.73;4.05;;;;;;;24.19;26.58;100881.03;5109832;28;20035;-46
2022/12/10 17:36:43;;;;;;;12.38;3.90;;;;;;;24.23;26.75;100880.19;5109535;28;20031;-43
2022/12/10 17:39:15;;;;;;;7.97;4.10;;;;;;;24.22;26.99;100874.09;5109923;28;20024;-48
2022/12/10 17:41:43;;;;;;;7.85;3.80;;;;;;;24.30;26.58;100882.03;5109861;28;20368;-44
2022/12/10 17:44:10;;;;;;;9.52;3.42;;;;;;;24.32;26.48;100872.44;5109698;28;20028;-45
2022/12/10 17:46:39;;;;;;;7.30;3.72;;;;;;;24.37;26.74;100875.97;5109683;28;20043;-44
2022/12/10 17:49:06;;;;;;;5.88;3.30;;;;;;;24.33;26.65;100882.03;5109649;28;20024;-44
2022/12/10 17:51:33;;;;;;;7.20;3.97;;;;;;;24.31;26.60;100880.28;5109768;28;20035;-44
2022/12/10 17:54:02;;;;;;;5.85;3.85;;;;;;;24.31;26.81;100868.06;5109341;28;20098;-46
2022/12/10 17:56:29;;;;;;;11.93;5.97;;;;;;;24.32;26.81;100864.59;5109262;28;20038;-44
2022/12/10 17:58:57;;;;;;;9.05;6.25;;;;;;;24.35;26.79;100858.47;5109506;28;20023;-44
2022/12/10 18:01:26;;;;;;;8.95;5.78;;;;;;;24.43;26.57;100859.41;5109528;28;20020;-44
2022/12/10 18:03:55;;;;;;;9.20;5.72;;;;;;;24.44;26.79;100863.81;5109256;28;20421;-44
2022/12/10 18:06:27;;;;;;;7.50;5.00;;;;;;;24.48;26.56;100849.84;5101927;28;20052;-45
2022/12/10 18:08:56;;;;;;;8.80;5.47;;;;;;;24.52;26.45;100848.13;5095872;28;20099;-44
2022/12/10 18:11:29;;;;;;;7.05;4.82;;;;;;;24.51;26.81;100843.75;5094903;28;20031;-45
2022/12/10 18:13:56;;;;;;;7.00;5.03;;;;;;;24.52;26.35;100843.78;5095436;28;20028;-43
2022/12/10 18:16:30;;;;;;;9.68;5.05;;;;;;;24.53;26.38;100845.53;5095616;28;20055;-44
2022/12/10 18:18:58;;;;;;;8.20;5.30;;;;;;;24.60;26.90;100846.47;5095374;28;20389;-44
2022/12/10 18:21:26;;;;;;;7.63;5.35;;;;;;;24.58;26.68;100849.06;5095488;28;20034;-45
2022/12/10 18:23:53;;;;;;;8.48;4.72;;;;;;;24.58;26.33;100848.19;5095344;28;20446;-45
2022/12/10 18:26:25;;;;;;;7.43;5.28;;;;;;;24.61;26.56;100840.38;5077348;28;20028;-45
2022/12/10 18:29:03;;;;;;;9.32;5.47;;;;;;;24.60;26.46;100835.09;5094923;28;20036;-45
2022/12/10 18:31:33;;;;;;;8.90;5.38;;;;;;;24.63;26.48;100841.25;5095128;28;20020;-44
2022/12/10 18:34:05;;;;;;;10.15;4.97;;;;;;;24.66;26.29;100840.41;5095045;28;20024;-45
2022/12/10 18:36:35;;;;;;;10.15;5.45;;;;;;;24.63;26.57;100838.63;5095389;28;20099;-46
2022/12/10 18:39:24;;;;;;;8.57;5.28;;;;;;;24.67;26.49;100831.66;5095077;28;20050;-44
2022/12/10 18:41:53;;;;;;;9.82;5.35;;;;;;;24.73;26.63;100831.75;5094900;28;20031;-44
2022/12/10 18:44:24;;;;;;;7.22;4.75;;;;;;;24.69;26.71;100827.31;5093992;28;20056;-44
2022/12/10 18:46:53;;;;;;;9.50;5.50;;;;;;;24.71;26.35;100828.25;5094169;28;20545;-46
2022/12/10 18:49:22;;;;;;;9.30;5.25;;;;;;;24.69;26.83;100829.94;5093561;28;20342;-45
2022/12/10 18:51:51;;;;;;;9.15;5.57;;;;;;;24.72;26.58;100836.09;5092781;28;20111;-44
2022/12/10 18:54:19;;;;;;;9.65;4.90;;;;;;;24.78;26.65;100829.16;5094406;28;20481;-44
2022/12/10 18:56:47;;;;;;;10.00;4.82;;;;;;;24.75;26.34;100829.13;5093438;28;20047;-44
2022/12/10 18:59:17;;;;;;;8.98;4.88;;;;;;;24.76;26.42;100830.88;5094601;28;20107;-46
2022/12/10 19:01:46;;;;;;;11.02;5.63;;;;;;;24.79;26.82;100825.66;5094836;28;20020;-44
2022/12/10 19:04:13;;;;;;;11.00;5.20;;;;;;;24.81;26.47;100831.81;5094470;28;20059;-43
2022/12/10 19:06:43;;;;;;;10.73;5.18;;;;;;;24.85;26.50;100830.94;5094787;28;20469;-43
2022/12/10 19:09:15;;;;;;;7.78;4.90;;;;;;;24.84;26.75;100835.31;5094733;28;20431;-44
2022/12/10 19:11:46;;;;;;;11.18;5.35;;;;;;;24.84;26.53;100835.31;5092974;28;20490;-46
2022/12/10 19:14:15;;;;;;;7.30;5.18;;;;;;;24.84;26.58;100837.06;5094056;28;20032;-46
2022/12/10 19:16:43;;;;;;;9.20;5.38;;;;;;;24.88;26.69;100842.38;5094283;28;20020;-46
2022/12/10 19:19:13;;;;;;;7.93;4.75;;;;;;;24.88;26.90;100836.22;5093187;28;20487;-47
2022/12/10 19:21:41;;;;;;;9.77;4.50;;;;;;;24.94;26.71;100840.63;5094521;28;20035;-47
2022/12/10 19:24:10;;;;;;;8.45;4.53;;;;;;;24.93;26.70;100836.25;5094189;28;20465;-44
2022/12/10 19:26:39;;;;;;;7.15;4.18;;;;;;;24.98;27.15;100842.41;5094207;28;20024;-44
2022/12/10 19:29:14;;;;;;;10.55;4.22;;;;;;;24.99;26.70;100838.91;5094126;28;20052;-45
2022/12/10 19:31:43;;;;;;;8.88;4.45;;;;;;;25.03;26.63;100843.34;5093722;28;20081;-45
2022/12/10 19:34:13;;;;;;;8.68;4.80;;;;;;;25.04;26.81;100842.47;5092760;28;20031;-46
2022/12/10 19:36:41;;;;;;;7.80;4.03;;;;;;;25.07;26.75;100841.59;5093961;28;20031;-44
2022/12/10 19:39:17;;;;;;;6.60;3.90;;;;;;;25.05;26.61;100841.59;5092768;28;20039;-46
2022/12/10 19:41:44;;;;;;;9.93;3.97;;;;;;;25.10;26.83;100839.88;5094120;28;20099;-44
2022/12/10 19:44:11;;;;;;;6.93;4.28;;;;;;;25.12;26.80;100837.25;5092584;28;20028;-45
2022/12/10 19:46:40;;;;;;;6.05;3.78;;;;;;;25.11;26.62;100839.00;5093617;28;20032;-44
2022/12/10 19:49:12;;;;;;;7.70;3.95;;;;;;;25.03;26.91;100831.06;5093720;28;20465;-44
2022/12/10 19:51:40;;;;;;;7.72;4.57;;;;;;;25.11;26.88;100832.88;5093415;28;20032;-45
2022/12/10 19:54:09;;;;;;;8.02;4.63;;;;;;;25.11;26.74;100838.13;5093606;28;20500;-46
2022/12/10 19:56:36;;;;;;;9.57;4.50;;;;;;;25.14;26.53;100839.03;5090352;28;20112;-45
2022/12/10 19:59:09;;;;;;;7.95;4.68;;;;;;;25.17;26.70;100836.41;5093304;28;20028;-44
2022/12/10 20:01:38;;;;;;;7.60;4.03;;;;;;;25.18;27.04;100835.56;5092690;28;20024;-44
2022/12/10 20:04:06;;;;;;;7.25;4.93;;;;;;;25.21;26.72;100831.19;5093399;28;20035;-44
2022/12/10 20:06:38;;;;;;;12.57;4.78;;;;;;;25.23;26.73;100827.69;5093664;28;20028;-44
2022/12/10 20:09:27;;;;;;;8.70;5.07;;;;;;;25.28;26.86;100827.72;5093409;28;20028;-44
2022/12/10 20:11:55;;;;;;;9.13;4.93;;;;;;;25.31;26.38;100831.25;5093470;28;20097;-44
2022/12/10 20:14:23;;;;;;;10.30;5.53;;;;;;;25.28;26.65;100825.97;5092903;28;20028;-43
2022/12/10 20:16:52;;;;;;;10.88;5.28;;;;;;;25.25;26.45;100825.97;5093239;28;20024;-44
2022/12/10 20:19:22;;;;;;;11.07;5.78;;;;;;;25.26;26.70;100824.19;5093543;28;20388;-44
2022/12/10 20:21:49;;;;;;;8.60;5.10;;;;;;;25.30;26.60;100825.97;5092662;28;20358;-43
2022/12/10 20:24:17;;;;;;;10.32;6.32;;;;;;;25.31;26.41;100825.09;5093106;28;20536;-44
2022/12/10 20:26:47;;;;;;;12.60;5.88;;;;;;;25.33;26.56;100823.38;5092790;28;20063;-43
2022/12/10 20:29:17;;;;;;;9.10;5.18;;;;;;;25.32;26.28;100813.75;5091948;28;20035;-43
2022/12/10 20:31:45;;;;;;;7.10;4.90;;;;;;;25.40;26.34;100808.53;5091144;28;20423;-44
2022/12/10 20:34:12;;;;;;;9.63;5.13;;;;;;;25.39;26.58;100807.66;5091137;28;20499;-44
2022/12/10 20:36:41;;;;;;;11.25;5.07;;;;;;;25.44;26.61;100810.34;5091635;28;20028;-44
2022/12/10 20:39:19;;;;;;;8.77;5.18;;;;;;;25.40;26.53;100809.38;5091998;28;20040;-46
2022/12/10 20:41:48;;;;;;;8.32;4.88;;;;;;;25.43;26.41;100806.81;5090492;28;20072;-44
2022/12/10 20:44:15;;;;;;;7.07;4.82;;;;;;;25.48;26.36;100801.59;5091816;28;20485;-44
2022/12/10 20:46:44;;;;;;;10.35;5.57;;;;;;;25.50;26.49;100789.31;5078132;28;20090;-44
2022/12/10 20:49:13;;;;;;;11.25;4.90;;;;;;;25.45;26.09;100791.94;5072767;28;20029;-44
2022/12/10 20:51:41;;;;;;;8.20;5.25;;;;;;;25.44;26.10;100782.31;5072558;28;20055;-45
